createdAt,value
2023-04-17T00:06:17.306Z,94
2023-04-17T00:16:17.293Z,93.8
2023-04-17T00:26:17.261Z,94
2023-04-17T00:36:17.226Z,94.2
2023-04-17T00:46:17.192Z,94.4
2023-04-17T00:56:17.156Z,94.4
2023-04-17T01:06:17.129Z,94.4
2023-04-17T01:16:17.088Z,94.4
2023-04-17T01:26:17.073Z,94.2
2023-04-17T01:36:17.050Z,93.8
2023-04-17T01:46:17.012Z,93.8
2023-04-17T01:56:16.981Z,94
2023-04-17T02:06:16.964Z,94.2
2023-04-17T02:16:16.921Z,94.4
2023-04-17T02:26:16.900Z,94.6
2023-04-17T02:36:16.867Z,94.8
2023-04-17T02:46:16.844Z,95
2023-04-17T02:56:16.806Z,95
2023-04-17T03:06:16.782Z,94.8
2023-04-17T03:16:16.785Z,95
2023-04-17T03:26:16.739Z,95
2023-04-17T03:36:16.713Z,94.8
2023-04-17T03:46:16.949Z,94.8
2023-04-17T03:56:16.647Z,94.8
2023-04-17T04:06:16.667Z,94.8
2023-04-17T04:16:16.575Z,94.6
2023-04-17T04:26:16.558Z,94.4
2023-04-17T04:36:16.523Z,94
2023-04-17T04:46:16.497Z,94
2023-04-17T04:56:16.483Z,94
2023-04-17T05:06:16.469Z,93.6
2023-04-17T05:16:16.407Z,93
2023-04-17T05:26:16.424Z,92.2
2023-04-17T05:36:16.361Z,91.2
2023-04-17T05:46:16.361Z,90.4
2023-04-17T05:56:16.316Z,89.4
2023-04-17T06:06:16.319Z,88.2
2023-04-17T06:16:16.275Z,87.8
2023-04-17T06:26:16.216Z,87.6
2023-04-17T06:36:16.217Z,86.4
2023-04-17T06:46:16.219Z,85.4
2023-04-17T06:56:16.135Z,84.8
2023-04-17T07:06:16.132Z,84
2023-04-17T07:16:16.066Z,82.8
2023-04-17T07:26:16.042Z,82.8
2023-04-17T07:36:15.999Z,82
2023-04-17T07:46:16.017Z,81.4
2023-04-17T07:56:15.946Z,81.2
2023-04-17T08:06:16.035Z,80.8
2023-04-17T08:16:15.891Z,78.6
2023-04-17T08:26:15.859Z,76.2
2023-04-17T08:36:15.843Z,75.2
2023-04-17T08:46:15.792Z,74.4
2023-04-17T08:56:15.812Z,75
2023-04-17T09:06:15.824Z,73.6
2023-04-17T09:16:15.702Z,71.6
2023-04-17T09:26:15.678Z,69.4
2023-04-17T09:36:15.661Z,69
2023-04-17T09:46:15.741Z,68.8
2023-04-17T09:56:15.576Z,67.8
2023-04-17T10:06:15.531Z,64.8
2023-04-17T10:16:15.529Z,62.6
2023-04-17T10:26:15.597Z,61
2023-04-17T10:36:15.446Z,59.4
2023-04-17T10:46:15.635Z,59.6
2023-04-17T10:56:15.555Z,62.2
2023-04-17T11:06:15.462Z,61
2023-04-17T11:16:15.490Z,61.4
2023-04-17T11:26:15.284Z,61.2
2023-04-17T11:36:15.257Z,58.6
2023-04-17T11:46:15.246Z,57.4
2023-04-17T11:56:15.187Z,57.2
2023-04-17T12:06:15.158Z,55.8
2023-04-17T12:16:15.133Z,54.8
2023-04-17T12:26:15.087Z,54.6
2023-04-17T12:36:15.061Z,51
2023-04-17T12:46:15.024Z,50
2023-04-17T12:56:15.005Z,50.6
2023-04-17T13:06:14.964Z,52.2
2023-04-17T13:16:14.947Z,48.8
2023-04-17T13:26:14.886Z,48.4
2023-04-17T13:36:14.847Z,50.6
2023-04-17T13:46:14.826Z,52.8
2023-04-17T13:56:14.828Z,53.4
2023-04-17T14:06:14.819Z,52.8
2023-04-17T14:16:14.749Z,52
2023-04-17T14:26:14.703Z,51.6
2023-04-17T14:36:38.992Z,52.8
2023-04-17T14:46:14.632Z,52.8
2023-04-17T14:56:14.592Z,52.6
2023-04-17T15:06:14.587Z,51.8
2023-04-17T15:16:14.522Z,51.4
2023-04-17T15:26:14.500Z,50.8
2023-04-17T15:36:14.470Z,51
2023-04-17T15:46:14.458Z,50.2
2023-04-17T15:56:14.409Z,50.2
2023-04-17T16:06:14.358Z,50.2
2023-04-17T16:16:14.346Z,47.6
2023-04-17T16:26:14.334Z,46.2
2023-04-17T16:36:14.281Z,45.4
2023-04-17T16:46:14.248Z,45
2023-04-17T16:56:14.214Z,45.8
2023-04-17T17:06:14.222Z,46.6
2023-04-17T17:16:14.149Z,47.8
2023-04-17T17:26:14.109Z,47
2023-04-17T17:36:14.079Z,47.4
2023-04-17T17:46:14.043Z,47.2
2023-04-17T17:56:14.087Z,47.2
2023-04-17T18:06:13.966Z,47.4
2023-04-17T18:16:13.939Z,47.6
2023-04-17T18:26:13.926Z,49.4
2023-04-17T18:36:13.898Z,53.2
2023-04-17T18:46:13.858Z,55.8
2023-04-17T18:56:13.814Z,58
2023-04-17T19:06:13.840Z,60
2023-04-17T19:16:13.741Z,61.8
2023-04-17T19:26:13.722Z,64.2
2023-04-17T19:36:13.692Z,67.2
2023-04-17T19:46:13.666Z,70.6
2023-04-17T19:56:13.633Z,73
2023-04-17T20:06:13.589Z,74.2
2023-04-17T20:16:13.567Z,76
2023-04-17T20:26:13.539Z,77
2023-04-17T20:36:13.609Z,77.2
2023-04-17T20:46:13.488Z,78
2023-04-17T20:56:13.457Z,78.2
2023-04-17T21:06:13.454Z,78.6
2023-04-17T21:16:13.404Z,78.4
2023-04-17T21:26:13.390Z,78.6
2023-04-17T21:36:13.344Z,79.8
2023-04-17T21:46:13.334Z,80.6
2023-04-17T21:56:13.319Z,81
2023-04-17T22:06:13.270Z,82
2023-04-17T22:16:13.226Z,82
2023-04-17T22:26:13.216Z,81.6
2023-04-17T22:36:13.215Z,80.8
2023-04-17T22:46:13.152Z,81.4
2023-04-17T22:56:13.119Z,82
2023-04-17T23:06:13.086Z,81.4
2023-04-17T23:16:13.143Z,81
2023-04-17T23:26:13.032Z,79.8
2023-04-17T23:36:13.003Z,79.8
2023-04-17T23:46:12.978Z,80.6
2023-04-17T23:56:12.940Z,80.6
